Time;durP1;ratioP1;P1;durP2;ratioP2;P2;SDS_P1;SDS_P2;PMS_P1;PMS_P2;Temp;Humidity;BMP_temperature;BMP_pressure;BME280_temperature;BME280_humidity;BME280_pressure;Samples;Min_cycle;Max_cycle;Signal;HPM_P1;HPM_P2
2021/05/17 00:01:21;;;;;;;0.90;0.60;;;6.90;99.90;;;;;;5114603;28;20542;-72
2021/05/17 00:03:50;;;;;;;1.83;0.77;;;6.90;99.90;;;;;;5114704;28;20789;-73
2021/05/17 00:06:18;;;;;;;0.93;0.83;;;6.80;99.90;;;;;;5114352;28;20459;-73
2021/05/17 00:08:46;;;;;;;2.03;0.90;;;6.90;99.90;;;;;;5113765;27;20417;-72
2021/05/17 00:11:14;;;;;;;1.47;0.80;;;6.80;99.90;;;;;;5114877;28;20434;-72
2021/05/17 00:13:41;;;;;;;0.90;0.70;;;6.70;99.90;;;;;;5114213;28;20443;-73
2021/05/17 00:16:09;;;;;;;0.80;0.60;;;6.70;99.90;;;;;;5114190;28;20438;-73
2021/05/17 00:18:36;;;;;;;0.90;0.70;;;6.70;99.90;;;;;;5112874;28;20481;-72
2021/05/17 00:21:04;;;;;;;1.13;0.90;;;6.60;99.90;;;;;;5113018;28;20468;-72
2021/05/17 00:23:31;;;;;;;0.90;0.70;;;6.60;99.90;;;;;;5112301;28;20448;-71
2021/05/17 00:25:58;;;;;;;3.53;1.00;;;6.50;99.90;;;;;;5113105;28;20539;-72
2021/05/17 00:28:27;;;;;;;1.23;0.90;;;6.50;99.90;;;;;;5113183;28;20424;-73
2021/05/17 00:30:54;;;;;;;1.50;1.33;;;6.50;99.90;;;;;;5112659;28;20428;-72
2021/05/17 00:33:21;;;;;;;3.10;1.30;;;6.50;99.90;;;;;;5112403;28;20439;-73
2021/05/17 00:35:50;;;;;;;1.10;0.90;;;6.50;99.90;;;;;;5112830;28;20456;-72
2021/05/17 00:38:17;;;;;;;1.00;0.80;;;6.50;99.90;;;;;;5112736;28;20424;-72
2021/05/17 00:40:44;;;;;;;1.47;1.30;;;6.50;99.90;;;;;;5112394;28;20474;-72
2021/05/17 00:43:13;;;;;;;1.10;0.80;;;6.50;99.90;;;;;;5112621;28;20424;-72
2021/05/17 00:45:41;;;;;;;1.20;1.10;;;6.60;99.90;;;;;;5112672;28;20448;-72
2021/05/17 00:48:12;;;;;;;1.30;1.00;;;6.50;99.90;;;;;;5112685;28;20416;-72
2021/05/17 00:50:40;;;;;;;1.00;0.90;;;6.50;99.90;;;;;;5112407;28;20430;-72
2021/05/17 00:53:07;;;;;;;0.90;0.70;;;6.60;99.90;;;;;;5112478;28;20436;-72
2021/05/17 00:55:34;;;;;;;1.10;1.00;;;6.60;99.90;;;;;;5112537;28;20452;-72
2021/05/17 00:58:01;;;;;;;1.37;0.93;;;6.60;99.90;;;;;;5112805;28;20507;-73
2021/05/17 01:00:31;;;;;;;1.20;1.00;;;6.60;99.90;;;;;;5112595;28;20464;-71
2021/05/17 01:02:59;;;;;;;1.27;1.00;;;6.60;99.90;;;;;;5112471;28;20890;-72
2021/05/17 01:05:25;;;;;;;0.90;0.80;;;6.60;99.90;;;;;;5112503;28;20441;-70
2021/05/17 01:07:53;;;;;;;0.80;0.70;;;6.60;99.90;;;;;;5112559;28;20425;-72
2021/05/17 01:10:21;;;;;;;0.80;0.70;;;6.50;99.90;;;;;;5111735;28;20432;-72
2021/05/17 01:12:50;;;;;;;1.10;0.70;;;6.50;99.90;;;;;;5112413;28;20831;-72
2021/05/17 01:15:19;;;;;;;1.20;0.80;;;6.50;99.90;;;;;;5112264;28;20874;-73
2021/05/17 01:18:45;;;;;;;1.13;0.80;;;6.50;99.90;;;;;;5108507;27;20542;-72
2021/05/17 01:21:18;;;;;;;1.00;0.77;;;6.40;99.90;;;;;;5108782;28;20413;-71
2021/05/17 01:23:54;;;;;;;1.67;0.83;;;6.40;99.90;;;;;;5108215;28;20445;-72
2021/05/17 01:26:22;;;;;;;1.00;0.70;;;6.40;99.90;;;;;;5108735;28;20444;-72
2021/05/17 01:28:52;;;;;;;0.90;0.80;;;6.40;99.90;;;;;;5108499;28;20429;-72
2021/05/17 01:31:19;;;;;;;1.10;0.80;;;6.40;99.90;;;;;;5108514;28;20416;-71
2021/05/17 01:33:47;;;;;;;1.17;0.83;;;6.40;99.90;;;;;;5098174;28;20969;-68
2021/05/17 01:36:15;;;;;;;1.10;1.00;;;6.40;99.90;;;;;;5088052;28;20502;-72
2021/05/17 01:38:44;;;;;;;0.90;0.80;;;6.40;99.90;;;;;;5087619;28;20436;-72
2021/05/17 01:41:13;;;;;;;3.07;0.80;;;6.50;99.90;;;;;;5088158;28;20421;-71
2021/05/17 01:43:41;;;;;;;1.00;0.90;;;6.40;99.90;;;;;;5087487;28;20437;-72
2021/05/17 01:46:11;;;;;;;1.10;1.00;;;6.40;99.90;;;;;;5087306;28;20555;-72
2021/05/17 01:48:41;;;;;;;5.53;0.90;;;6.40;99.90;;;;;;5087818;28;20425;-71
2021/05/17 01:51:09;;;;;;;1.00;0.90;;;6.40;99.90;;;;;;5087625;28;20417;-71
2021/05/17 01:53:37;;;;;;;4.40;0.80;;;6.40;99.90;;;;;;5087318;28;20438;-72
2021/05/17 01:56:06;;;;;;;1.20;1.03;;;6.40;99.90;;;;;;5087388;28;20476;-72
2021/05/17 01:58:36;;;;;;;0.93;0.83;;;6.40;99.90;;;;;;5087366;28;20823;-72
2021/05/17 02:01:03;;;;;;;2.93;0.93;;;6.40;99.90;;;;;;5087392;28;20524;-72
2021/05/17 02:03:37;;;;;;;1.20;0.90;;;6.40;99.90;;;;;;5087831;28;20935;-72
2021/05/17 02:06:05;;;;;;;2.80;1.00;;;6.50;99.90;;;;;;5087570;28;20446;-72
2021/05/17 02:08:33;;;;;;;5.80;1.00;;;6.50;99.90;;;;;;5087478;28;20927;-72
2021/05/17 02:11:01;;;;;;;2.07;1.10;;;6.50;99.90;;;;;;5087143;28;20814;-72
2021/05/17 02:13:28;;;;;;;1.80;1.40;;;6.50;99.90;;;;;;5087133;28;20421;-72
2021/05/17 02:15:56;;;;;;;5.27;1.37;;;6.50;99.90;;;;;;5087133;28;20462;-72
2021/05/17 02:18:23;;;;;;;1.20;1.10;;;6.50;99.90;;;;;;5086615;28;20487;-71
2021/05/17 02:20:50;;;;;;;1.20;0.93;;;6.50;99.90;;;;;;5087258;28;20450;-72
2021/05/17 02:23:18;;;;;;;1.93;1.00;;;6.60;99.90;;;;;;5087349;28;20494;-71
2021/05/17 02:25:46;;;;;;;5.80;1.37;;;6.50;99.90;;;;;;5087107;28;20445;-71
2021/05/17 02:28:13;;;;;;;1.97;1.23;;;6.60;99.90;;;;;;5083338;28;20449;-72
2021/05/17 02:30:42;;;;;;;5.17;1.50;;;6.50;99.90;;;;;;5073125;28;20433;-71
2021/05/17 02:33:11;;;;;;;2.87;1.30;;;6.50;99.90;;;;;;5073607;28;20509;-71
2021/05/17 02:35:39;;;;;;;1.30;1.20;;;6.50;99.90;;;;;;5073412;28;20445;-71
2021/05/17 02:38:07;;;;;;;4.13;1.50;;;6.50;99.90;;;;;;5073387;28;20474;-71
2021/05/17 02:40:34;;;;;;;1.33;1.03;;;6.50;99.90;;;;;;5073154;28;20430;-72
2021/05/17 02:43:02;;;;;;;4.20;1.87;;;6.60;99.90;;;;;;5073168;28;20481;-72
2021/05/17 02:45:30;;;;;;;3.80;1.50;;;6.60;99.90;;;;;;5073144;28;21025;-72
2021/05/17 02:47:59;;;;;;;5.23;1.87;;;6.60;99.90;;;;;;5073306;28;20423;-71
2021/05/17 02:50:35;;;;;;;9.40;1.93;;;6.50;99.90;;;;;;5072143;28;21463;-71
2021/05/17 02:53:21;;;;;;;6.37;1.80;;;6.50;99.90;;;;;;5073229;28;20453;-71
2021/05/17 02:55:50;;;;;;;1.73;1.20;;;6.50;99.90;;;;;;5073100;28;20466;-71
2021/05/17 02:58:18;;;;;;;5.13;1.90;;;6.60;99.90;;;;;;5072287;28;20481;-72
2021/05/17 03:00:51;;;;;;;3.47;1.47;;;6.60;99.90;;;;;;5072709;28;20430;-71
2021/05/17 03:03:18;;;;;;;1.40;1.10;;;6.60;99.90;;;;;;5073129;28;20822;-72
2021/05/17 03:05:52;;;;;;;2.20;1.60;;;6.60;99.90;;;;;;5072619;28;20466;-71
2021/05/17 03:08:24;;;;;;;2.73;1.93;;;6.50;99.90;;;;;;5072942;28;20432;-71
2021/05/17 03:10:51;;;;;;;2.50;1.57;;;6.50;99.90;;;;;;5072716;28;20946;-72
2021/05/17 03:13:20;;;;;;;2.33;1.20;;;6.50;99.90;;;;;;5072529;28;20826;-72
2021/05/17 03:15:47;;;;;;;2.70;0.90;;;6.50;99.90;;;;;;5072932;28;20949;-71
2021/05/17 03:18:14;;;;;;;3.53;1.27;;;6.50;99.90;;;;;;5071733;28;20535;-72
2021/05/17 03:20:41;;;;;;;6.60;1.57;;;6.50;99.90;;;;;;5072551;28;21007;-71
2021/05/17 03:23:11;;;;;;;17.63;5.00;;;6.50;99.90;;;;;;5072647;28;20426;-71
2021/05/17 03:25:39;;;;;;;4.63;1.43;;;6.40;99.90;;;;;;5072549;28;20451;-71
2021/05/17 03:28:07;;;;;;;4.80;1.80;;;6.40;99.90;;;;;;5071495;28;20457;-70
2021/05/17 03:30:33;;;;;;;5.33;1.73;;;6.40;99.90;;;;;;5072403;28;20422;-70
2021/05/17 03:33:00;;;;;;;2.47;1.40;;;6.50;99.90;;;;;;5072117;28;20453;-71
2021/05/17 03:35:27;;;;;;;12.00;1.43;;;6.50;99.90;;;;;;5072363;28;20446;-70
2021/05/17 03:37:55;;;;;;;11.83;2.17;;;6.50;99.90;;;;;;5072191;28;20515;-70
2021/05/17 03:40:23;;;;;;;1.20;1.00;;;6.50;99.90;;;;;;5068628;28;20849;-71
2021/05/17 03:42:49;;;;;;;2.20;1.10;;;6.50;99.90;;;;;;5077381;28;20449;-68
2021/05/17 03:45:16;;;;;;;5.43;1.40;;;6.50;99.90;;;;;;5092373;28;20449;-68
2021/05/17 03:47:43;;;;;;;2.50;1.13;;;6.50;99.90;;;;;;5092521;28;20502;-69
2021/05/17 03:50:13;;;;;;;5.30;1.10;;;6.50;99.90;;;;;;5092155;28;20429;-68
2021/05/17 03:52:40;;;;;;;4.27;1.20;;;6.50;99.90;;;;;;5092423;28;21122;-68
2021/05/17 03:55:08;;;;;;;3.30;1.53;;;6.50;99.90;;;;;;5092057;28;20464;-69
2021/05/17 03:57:37;;;;;;;2.60;0.80;;;6.50;99.90;;;;;;5092115;28;20496;-70
2021/05/17 04:00:07;;;;;;;1.00;0.80;;;6.60;99.90;;;;;;5072337;28;20560;-68
2021/05/17 04:02:34;;;;;;;4.07;1.20;;;6.60;99.90;;;;;;5071914;28;20470;-70
2021/05/17 04:05:10;;;;;;;2.43;1.27;;;6.50;99.90;;;;;;5071157;28;21104;-71
2021/05/17 04:07:55;;;;;;;1.63;1.03;;;6.50;99.90;;;;;;5071810;28;20427;-69
2021/05/17 04:13:20;;;;;;;1.43;1.17;;;6.50;99.90;;;;;;5071035;28;20456;-70
2021/05/17 04:15:49;;;;;;;2.97;1.27;;;6.50;99.90;;;;;;5071512;28;20454;-70
2021/05/17 04:18:17;;;;;;;4.40;1.33;;;6.50;99.90;;;;;;5071057;28;20631;-68
2021/05/17 04:20:44;;;;;;;2.90;1.33;;;6.40;99.90;;;;;;5071467;28;20498;-68
2021/05/17 04:23:11;;;;;;;4.33;1.20;;;6.40;99.90;;;;;;5071324;28;20564;-70
2021/05/17 04:25:38;;;;;;;5.13;1.20;;;6.40;99.90;;;;;;5071414;28;20973;-69
2021/05/17 04:28:05;;;;;;;4.50;1.50;;;6.40;99.90;;;;;;5071334;28;20429;-69
2021/05/17 04:30:33;;;;;;;2.27;1.10;;;6.40;99.90;;;;;;5070312;28;20441;-68
2021/05/17 04:33:00;;;;;;;3.77;1.73;;;6.40;99.90;;;;;;5071445;28;20426;-67
2021/05/17 04:35:27;;;;;;;2.03;1.10;;;6.40;99.90;;;;;;5071187;28;20436;-69
2021/05/17 04:37:56;;;;;;;5.73;1.10;;;6.40;99.90;;;;;;5071048;28;20473;-68
2021/05/17 04:40:24;;;;;;;3.10;1.00;;;6.40;99.90;;;;;;5073168;28;20450;-68
2021/05/17 04:42:50;;;;;;;4.43;1.40;;;6.30;99.90;;;;;;5079347;28;20452;-68
2021/05/17 04:45:19;;;;;;;3.90;1.40;;;6.30;99.90;;;;;;5071268;28;20833;-67
2021/05/17 04:47:50;;;;;;;1.20;1.10;;;6.30;99.90;;;;;;5071005;28;20838;-70
2021/05/17 04:50:17;;;;;;;2.30;1.60;;;6.40;99.90;;;;;;5070825;28;20468;-68
2021/05/17 04:52:43;;;;;;;1.77;1.47;;;6.30;99.90;;;;;;5070770;28;20432;-68
2021/05/17 04:55:11;;;;;;;3.70;1.23;;;6.40;99.90;;;;;;5070978;28;20454;-69
2021/05/17 04:57:38;;;;;;;1.90;1.07;;;6.40;99.90;;;;;;5070516;28;20476;-69
2021/05/17 05:00:07;;;;;;;1.93;1.30;;;6.50;99.90;;;;;;5070202;28;20940;-68
2021/05/17 05:02:34;;;;;;;5.90;1.30;;;6.60;99.90;;;;;;5070921;28;20446;-68
2021/05/17 05:05:02;;;;;;;2.33;1.73;;;6.60;99.90;;;;;;5070834;28;20450;-67
2021/05/17 05:07:28;;;;;;;1.60;1.07;;;6.70;99.90;;;;;;5076324;28;20451;-67
2021/05/17 05:09:55;;;;;;;5.27;1.77;;;6.80;99.90;;;;;;5078915;28;20436;-68
2021/05/17 05:12:22;;;;;;;2.20;1.10;;;6.80;99.90;;;;;;5070665;28;20907;-67
2021/05/17 05:14:48;;;;;;;3.80;1.30;;;6.90;99.90;;;;;;5070773;28;20429;-67
2021/05/17 05:17:15;;;;;;;5.40;1.67;;;6.80;99.90;;;;;;5070092;28;20538;-68
2021/05/17 05:19:42;;;;;;;4.23;1.23;;;6.70;99.90;;;;;;5070729;28;20477;-68
2021/05/17 05:22:09;;;;;;;7.20;1.30;;;6.70;99.90;;;;;;5070841;28;20423;-70
2021/05/17 05:24:36;;;;;;;4.00;1.53;;;6.80;99.90;;;;;;5070668;28;20437;-68
2021/05/17 05:27:11;;;;;;;1.63;1.17;;;6.70;99.90;;;;;;5070306;28;20555;-69
2021/05/17 05:32:29;;;;;;;4.20;1.20;;;6.80;99.90;;;;;;5066914;28;21121;-69
2021/05/17 05:34:55;;;;;;;24.87;1.77;;;6.80;99.90;;;;;;5070541;28;20665;-69
2021/05/17 05:37:23;;;;;;;3.80;1.20;;;6.80;99.90;;;;;;5074893;28;20492;-68
2021/05/17 05:39:50;;;;;;;3.33;1.67;;;6.90;99.90;;;;;;5081060;28;20446;-69
2021/05/17 05:42:17;;;;;;;2.90;0.80;;;6.90;99.90;;;;;;5078855;28;20818;-67
2021/05/17 05:44:45;;;;;;;5.70;1.67;;;6.90;99.90;;;;;;5090242;28;20520;-70
2021/05/17 05:47:15;;;;;;;4.50;1.57;;;6.90;99.90;;;;;;5075803;28;20437;-69
2021/05/17 05:49:43;;;;;;;1.57;1.40;;;6.80;99.90;;;;;;5069878;28;20532;-69
2021/05/17 05:52:10;;;;;;;6.93;1.00;;;6.80;99.90;;;;;;5070227;28;20442;-70
2021/05/17 05:54:37;;;;;;;1.40;0.80;;;6.80;99.90;;;;;;5072509;28;20436;-68
2021/05/17 05:57:06;;;;;;;1.77;0.90;;;6.90;99.90;;;;;;5089976;28;20464;-69
2021/05/17 05:59:33;;;;;;;1.27;0.80;;;6.90;99.90;;;;;;5090525;28;20445;-67
2021/05/17 06:02:00;;;;;;;2.77;0.80;;;7.00;99.90;;;;;;5090646;28;20427;-71
2021/05/17 06:04:26;;;;;;;1.57;0.90;;;7.00;99.90;;;;;;5092695;28;20445;-68
2021/05/17 06:06:53;;;;;;;1.47;0.60;;;6.90;99.90;;;;;;5094448;28;20473;-70
2021/05/17 06:09:20;;;;;;;3.07;0.80;;;6.90;99.90;;;;;;5094063;28;20452;-71
2021/05/17 06:11:47;;;;;;;4.77;2.70;;;6.80;99.90;;;;;;5093732;28;20448;-68
2021/05/17 06:14:15;;;;;;;1.60;0.83;;;6.90;99.90;;;;;;5094164;28;20462;-69
2021/05/17 06:16:41;;;;;;;3.73;0.83;;;7.00;99.90;;;;;;5083389;28;20470;-69
2021/05/17 06:19:10;;;;;;;1.10;0.70;;;7.00;99.90;;;;;;5073139;28;20445;-68
2021/05/17 06:21:37;;;;;;;1.63;0.87;;;7.00;99.90;;;;;;5073950;28;20430;-68
2021/05/17 06:24:05;;;;;;;3.90;0.80;;;7.10;99.90;;;;;;5073464;28;20418;-69
2021/05/17 06:26:33;;;;;;;1.10;0.70;;;7.10;99.90;;;;;;5075135;28;20463;-69
2021/05/17 06:29:01;;;;;;;1.83;0.80;;;7.10;99.90;;;;;;5073490;28;20425;-69
2021/05/17 06:31:29;;;;;;;3.63;1.27;;;7.10;99.90;;;;;;5073479;28;20450;-70
2021/05/17 06:33:56;;;;;;;2.00;0.97;;;7.10;99.90;;;;;;5073755;28;20612;-69
2021/05/17 06:36:22;;;;;;;5.03;0.83;;;7.10;99.90;;;;;;5073390;28;20465;-69
2021/05/17 06:38:52;;;;;;;1.83;0.70;;;7.00;99.90;;;;;;5072968;28;20474;-68
2021/05/17 06:41:19;;;;;;;13.93;1.10;;;7.00;99.90;;;;;;5080633;28;20529;-68
2021/05/17 06:43:46;;;;;;;0.80;0.70;;;6.90;99.90;;;;;;5088475;28;20431;-68
2021/05/17 06:46:14;;;;;;;1.13;0.87;;;6.90;99.90;;;;;;5093483;28;20451;-70
2021/05/17 06:48:44;;;;;;;6.97;0.93;;;6.90;99.90;;;;;;5093620;28;20433;-69
2021/05/17 06:51:13;;;;;;;1.10;0.80;;;6.80;99.90;;;;;;5093474;28;20470;-69
2021/05/17 06:53:41;;;;;;;1.23;0.73;;;6.80;99.90;;;;;;5093451;28;20430;-68
2021/05/17 06:56:13;;;;;;;1.30;0.90;;;6.80;99.90;;;;;;5084975;28;20520;-70
2021/05/17 06:58:53;;;;;;;1.00;0.80;;;6.90;99.90;;;;;;5071981;28;20478;-70
2021/05/17 07:01:22;;;;;;;1.43;0.90;;;7.00;99.90;;;;;;5072966;28;20544;-68
2021/05/17 07:03:49;;;;;;;1.53;1.10;;;7.00;99.90;;;;;;5073089;28;20784;-69
2021/05/17 07:06:20;;;;;;;6.30;1.23;;;7.00;99.90;;;;;;5072973;28;21012;-69
2021/05/17 07:11:45;;;;;;;1.27;1.00;;;6.90;99.90;;;;;;5071903;28;20442;-70
2021/05/17 07:14:12;;;;;;;2.63;1.07;;;6.90;99.90;;;;;;5072662;28;20437;-68
2021/05/17 07:16:40;;;;;;;2.70;2.50;;;7.00;99.90;;;;;;5072914;28;20830;-69
2021/05/17 07:19:06;;;;;;;0.97;0.87;;;6.90;99.90;;;;;;5072445;28;20475;-69
2021/05/17 07:24:20;;;;;;;1.63;0.90;;;7.00;99.90;;;;;;5072599;28;20429;-68
2021/05/17 07:26:47;;;;;;;5.37;0.90;;;7.00;99.90;;;;;;5072206;28;20511;-69
2021/05/17 07:29:14;;;;;;;3.10;1.10;;;7.00;99.90;;;;;;5072669;28;20848;-69
2021/05/17 07:31:42;;;;;;;1.13;1.03;;;7.10;99.90;;;;;;5072440;28;20426;-69
2021/05/17 07:34:09;;;;;;;2.67;0.90;;;7.10;99.90;;;;;;5072430;28;20422;-69
2021/05/17 07:36:36;;;;;;;6.33;1.00;;;7.10;99.90;;;;;;5071747;28;20482;-70
2021/05/17 07:39:03;;;;;;;4.27;2.40;;;7.00;99.90;;;;;;5072309;28;20473;-68
2021/05/17 07:41:30;;;;;;;1.33;1.23;;;6.90;99.90;;;;;;5072241;28;20535;-72
2021/05/17 07:43:57;;;;;;;9.10;2.20;;;6.90;99.90;;;;;;5072404;28;20503;-71
2021/05/17 07:46:23;;;;;;;3.60;1.60;;;7.00;99.90;;;;;;5071881;28;20477;-69
2021/05/17 07:49:09;;;;;;;2.13;1.30;;;7.10;99.90;;;;;;5071492;28;20815;-71
2021/05/17 07:51:36;;;;;;;4.33;1.50;;;7.20;99.90;;;;;;5071888;28;20483;-71
2021/05/17 07:54:03;;;;;;;1.57;1.40;;;7.30;99.90;;;;;;5072069;28;20440;-69
2021/05/17 07:56:30;;;;;;;1.77;1.30;;;7.40;99.90;;;;;;5071610;28;20496;-71
2021/05/17 07:58:58;;;;;;;3.10;0.90;;;7.50;99.90;;;;;;5071407;28;20470;-69
2021/05/17 08:01:24;;;;;;;1.30;1.10;;;7.50;99.90;;;;;;5072079;28;20430;-70
2021/05/17 08:03:52;;;;;;;1.00;0.90;;;7.60;99.90;;;;;;5070981;28;20464;-69
2021/05/17 08:06:19;;;;;;;2.33;1.43;;;7.40;99.90;;;;;;5071665;28;20468;-68
2021/05/17 08:08:46;;;;;;;5.27;1.60;;;7.30;99.90;;;;;;5071442;28;20430;-67
2021/05/17 08:11:12;;;;;;;4.43;1.20;;;7.30;99.90;;;;;;5071644;28;20450;-68
2021/05/17 08:13:39;;;;;;;4.27;2.10;;;7.20;99.90;;;;;;5071595;28;20487;-68
2021/05/17 08:16:07;;;;;;;1.83;1.20;;;7.10;99.90;;;;;;5071470;28;20554;-68
2021/05/17 08:18:34;;;;;;;1.33;1.23;;;7.10;99.90;;;;;;5071161;28;20960;-68
2021/05/17 08:21:02;;;;;;;1.47;1.07;;;7.10;99.90;;;;;;5071664;28;20433;-68
2021/05/17 08:23:29;;;;;;;4.23;1.40;;;7.10;99.90;;;;;;5071284;28;20442;-71
2021/05/17 08:25:56;;;;;;;2.93;1.00;;;7.10;99.90;;;;;;5070324;28;20475;-69
2021/05/17 08:28:22;;;;;;;2.53;2.03;;;7.00;99.90;;;;;;5071365;28;20455;-68
2021/05/17 08:30:55;;;;;;;2.60;0.90;;;7.00;99.90;;;;;;5071120;28;20437;-68
2021/05/17 08:33:23;;;;;;;3.17;0.87;;;6.90;99.90;;;;;;5070529;28;20820;-69
2021/05/17 08:35:49;;;;;;;2.73;1.00;;;7.00;99.90;;;;;;5071314;28;20524;-67
2021/05/17 08:38:18;;;;;;;0.90;0.80;;;7.00;99.90;;;;;;5070944;28;20816;-69
2021/05/17 08:40:46;;;;;;;4.40;1.47;;;7.10;99.90;;;;;;5071450;28;20446;-68
2021/05/17 08:43:13;;;;;;;7.73;0.97;;;7.10;99.90;;;;;;5071109;28;20427;-68
2021/05/17 08:45:40;;;;;;;0.90;0.70;;;7.20;99.90;;;;;;5073317;28;20954;-67
2021/05/17 08:48:08;;;;;;;2.03;0.93;;;7.20;99.90;;;;;;5079734;28;20455;-67
2021/05/17 08:50:36;;;;;;;2.83;0.73;;;7.20;99.90;;;;;;5071316;28;20433;-67
2021/05/17 08:53:03;;;;;;;2.77;1.13;;;7.20;99.90;;;;;;5071148;28;20434;-67
2021/05/17 08:55:31;;;;;;;5.17;0.90;;;7.30;99.90;;;;;;5070516;28;20551;-68
2021/05/17 08:57:58;;;;;;;1.30;0.90;;;7.30;99.90;;;;;;5070887;28;20467;-67
2021/05/17 09:00:25;;;;;;;0.97;0.90;;;7.40;99.90;;;;;;5070780;28;20480;-67
2021/05/17 09:02:53;;;;;;;0.97;0.87;;;7.60;99.90;;;;;;5070665;28;20418;-68
2021/05/17 09:05:23;;;;;;;3.00;0.90;;;7.60;99.90;;;;;;5071017;28;21017;-67
2021/05/17 09:07:51;;;;;;;3.53;1.00;;;7.70;99.90;;;;;;5070994;28;20859;-67
2021/05/17 09:10:21;;;;;;;1.57;0.70;;;7.80;99.90;;;;;;5070676;28;20507;-67
2021/05/17 09:13:01;;;;;;;2.50;0.90;;;7.90;99.90;;;;;;5070791;28;20449;-68
2021/05/17 09:15:30;;;;;;;2.17;0.87;;;8.10;99.90;;;;;;5070658;28;20461;-67
2021/05/17 09:17:58;;;;;;;1.20;0.83;;;8.20;99.90;;;;;;5069604;28;20570;-66
2021/05/17 09:20:33;;;;;;;1.07;0.97;;;8.20;99.90;;;;;;5070650;28;20433;-67
2021/05/17 09:23:11;;;;;;;2.07;0.87;;;8.20;99.90;;;;;;5070805;28;20463;-67
2021/05/17 09:25:38;;;;;;;1.20;0.77;;;8.50;99.90;;;;;;5070670;28;20434;-67
2021/05/17 09:28:08;;;;;;;0.90;0.60;;;8.40;99.90;;;;;;5070758;28;20939;-67
2021/05/17 09:30:51;;;;;;;1.07;0.80;;;8.30;99.90;;;;;;5070456;28;20440;-66
2021/05/17 09:33:20;;;;;;;1.83;1.07;;;8.40;99.90;;;;;;5070508;28;20487;-68
2021/05/17 09:35:48;;;;;;;1.00;0.90;;;8.60;99.90;;;;;;5070499;28;20447;-67
2021/05/17 09:38:20;;;;;;;1.73;0.80;;;8.60;99.90;;;;;;5069576;28;20483;-67
2021/05/17 09:40:47;;;;;;;0.93;0.73;;;8.50;99.90;;;;;;5074384;28;20517;-67
2021/05/17 09:43:16;;;;;;;0.80;0.60;;;8.40;99.90;;;;;;5074081;28;20776;-66
2021/05/17 09:45:45;;;;;;;1.17;0.90;;;8.40;99.90;;;;;;5074614;28;20479;-66
2021/05/17 09:48:13;;;;;;;0.90;0.70;;;8.30;99.90;;;;;;5074383;28;20433;-68
2021/05/17 09:51:03;;;;;;;1.57;0.80;;;8.50;99.90;;;;;;5074398;28;20448;-66
2021/05/17 09:53:31;;;;;;;2.40;0.80;;;8.70;99.90;;;;;;5073788;28;20475;-67
2021/05/17 09:55:58;;;;;;;1.53;1.07;;;8.50;99.90;;;;;;5074094;28;20466;-67
2021/05/17 09:58:31;;;;;;;0.90;0.80;;;8.50;99.90;;;;;;5074184;28;20494;-67
2021/05/17 10:01:12;;;;;;;3.20;0.80;;;8.60;99.90;;;;;;5074475;28;20423;-67
2021/05/17 10:03:41;;;;;;;1.40;0.70;;;8.80;99.90;;;;;;5074072;28;20428;-66
2021/05/17 10:06:10;;;;;;;1.03;0.70;;;8.80;99.90;;;;;;5074241;28;20444;-66
2021/05/17 10:08:37;;;;;;;2.80;0.90;;;8.90;99.90;;;;;;5073022;28;20440;-66
2021/05/17 10:11:05;;;;;;;4.70;1.13;;;9.10;99.90;;;;;;5074072;28;20965;-67
2021/05/17 10:13:36;;;;;;;4.83;1.87;;;9.30;99.90;;;;;;5073798;28;20999;-66
2021/05/17 10:16:05;;;;;;;3.50;0.90;;;9.20;99.90;;;;;;5073870;28;20853;-67
2021/05/17 10:18:32;;;;;;;2.40;1.60;;;9.40;99.90;;;;;;5074248;28;20556;-67
2021/05/17 10:20:59;;;;;;;2.63;1.10;;;9.70;99.90;;;;;;5073553;28;20505;-67
2021/05/17 10:23:26;;;;;;;1.37;1.17;;;9.90;99.90;;;;;;5073614;28;20446;-67
2021/05/17 10:25:54;;;;;;;2.70;0.93;;;9.80;99.90;;;;;;5073675;28;20498;-67
2021/05/17 10:28:25;;;;;;;5.10;1.00;;;9.80;99.90;;;;;;5072733;28;20458;-67
2021/05/17 10:31:07;;;;;;;1.63;0.80;;;9.80;99.90;;;;;;5074043;28;20729;-67
2021/05/17 10:33:34;;;;;;;1.67;1.10;;;9.50;99.90;;;;;;5073620;28;20929;-67
2021/05/17 10:36:02;;;;;;;1.00;0.80;;;9.30;99.90;;;;;;5073672;28;20449;-67
2021/05/17 10:38:33;;;;;;;2.10;0.93;;;9.10;99.90;;;;;;5072716;28;20543;-67
2021/05/17 10:41:23;;;;;;;1.30;0.70;;;9.00;99.90;;;;;;5073625;28;20795;-67
2021/05/17 10:44:05;;;;;;;3.53;0.80;;;8.90;99.90;;;;;;5073369;28;20428;-66
2021/05/17 10:46:41;;;;;;;2.13;0.83;;;8.70;99.90;;;;;;5073449;28;20463;-67
2021/05/17 10:49:29;;;;;;;8.80;1.27;;;8.60;99.90;;;;;;5072645;28;20508;-67
2021/05/17 10:52:17;;;;;;;8.03;2.97;;;8.30;99.90;;;;;;5073201;28;20452;-67
2021/05/17 10:54:45;;;;;;;1.70;0.87;;;8.30;99.90;;;;;;5079221;28;20454;-68
2021/05/17 10:57:19;;;;;;;3.93;1.23;;;8.10;99.90;;;;;;5079344;28;20447;-67
2021/05/17 11:02:36;;;;;;;3.53;0.90;;;7.80;99.90;;;;;;5072476;28;20452;-67
2021/05/17 11:05:09;;;;;;;1.03;0.80;;;7.80;99.90;;;;;;5073113;28;20455;-67
2021/05/17 11:07:47;;;;;;;1.00;0.80;;;7.80;99.90;;;;;;5072657;28;20429;-68
2021/05/17 11:10:20;;;;;;;0.90;0.77;;;7.90;99.90;;;;;;5072710;28;20426;-67
2021/05/17 11:12:58;;;;;;;1.77;1.10;;;8.10;99.90;;;;;;5073149;28;20432;-67
2021/05/17 11:15:43;;;;;;;1.43;1.23;;;8.40;99.90;;;;;;5072809;28;20446;-67
2021/05/17 11:18:23;;;;;;;1.00;0.90;;;8.80;99.90;;;;;;5070199;28;20476;-67
2021/05/17 11:20:55;;;;;;;1.80;0.67;;;9.10;99.90;;;;;;5072122;28;20503;-67
2021/05/17 11:23:50;;;;;;;2.80;0.70;;;9.40;99.90;;;;;;5071851;28;20459;-67
2021/05/17 11:26:18;;;;;;;1.77;0.70;;;9.60;99.90;;;;;;5072595;28;20460;-67
2021/05/17 11:29:00;;;;;;;1.23;0.70;;;9.40;99.90;;;;;;5071850;28;20444;-68
2021/05/17 11:31:37;;;;;;;1.10;0.80;;;9.30;99.90;;;;;;5072592;28;20859;-67
2021/05/17 11:34:27;;;;;;;5.70;0.90;;;9.10;99.90;;;;;;5072363;28;20923;-66
2021/05/17 11:37:10;;;;;;;0.80;0.50;;;8.80;99.90;;;;;;5068570;28;20466;-67
2021/05/17 11:39:38;;;;;;;1.00;0.80;;;8.80;99.90;;;;;;5070184;28;20474;-68
2021/05/17 11:42:07;;;;;;;2.40;0.70;;;8.80;99.90;;;;;;5072199;28;20444;-68
2021/05/17 11:44:37;;;;;;;0.80;0.60;;;8.80;99.90;;;;;;5072214;28;20426;-65
2021/05/17 11:47:06;;;;;;;0.87;0.63;;;9.00;99.90;;;;;;5072286;28;20763;-67
2021/05/17 11:49:34;;;;;;;0.80;0.63;;;9.20;99.90;;;;;;5071838;28;20927;-67
2021/05/17 11:52:03;;;;;;;0.80;0.70;;;9.30;99.90;;;;;;5072339;28;20783;-67
2021/05/17 11:54:38;;;;;;;1.57;0.83;;;9.20;99.90;;;;;;5072053;28;20927;-67
2021/05/17 11:57:06;;;;;;;1.60;0.80;;;9.20;99.90;;;;;;5071978;28;20455;-67
2021/05/17 11:59:34;;;;;;;0.90;0.77;;;9.30;99.90;;;;;;5071672;28;20484;-67
2021/05/17 12:02:02;;;;;;;0.80;0.70;;;9.30;99.90;;;;;;5078403;28;20444;-67
2021/05/17 12:04:33;;;;;;;2.20;0.70;;;9.70;99.90;;;;;;5085870;28;20444;-68
2021/05/17 12:07:02;;;;;;;4.53;1.00;;;9.60;99.90;;;;;;5073694;28;20543;-66
2021/05/17 12:09:35;;;;;;;2.10;0.80;;;9.80;99.90;;;;;;5071415;28;20495;-66
2021/05/17 12:12:03;;;;;;;5.23;0.90;;;10.20;99.90;;;;;;5071686;28;20429;-66
2021/05/17 12:14:31;;;;;;;3.27;0.80;;;10.40;99.90;;;;;;5071041;28;20523;-66
2021/05/17 12:17:03;;;;;;;1.37;0.80;;;10.50;99.90;;;;;;5071151;28;20460;-67
2021/05/17 12:19:30;;;;;;;1.47;0.70;;;10.70;99.90;;;;;;5070753;28;20473;-67
2021/05/17 12:21:58;;;;;;;5.63;0.80;;;10.80;99.90;;;;;;5071076;28;20438;-67
2021/05/17 12:24:27;;;;;;;0.90;0.60;;;10.60;99.90;;;;;;5070632;28;20954;-66
2021/05/17 12:27:01;;;;;;;0.90;0.70;;;10.90;99.90;;;;;;5071615;28;20461;-66
2021/05/17 12:29:38;;;;;;;3.63;0.73;;;11.10;99.90;;;;;;5071110;28;20437;-64
2021/05/17 12:32:10;;;;;;;0.80;0.60;;;11.20;99.90;;;;;;5071273;28;20545;-66
2021/05/17 12:34:53;;;;;;;0.80;0.60;;;11.50;99.90;;;;;;5071308;28;20436;-67
2021/05/17 12:37:36;;;;;;;0.80;0.60;;;11.50;99.90;;;;;;5070650;28;20477;-63
2021/05/17 12:43:12;;;;;;;0.90;0.60;;;10.80;99.90;;;;;;5070861;28;20430;-64
2021/05/17 12:45:44;;;;;;;1.93;0.70;;;10.90;99.90;;;;;;5070904;28;20453;-65
2021/05/17 12:48:24;;;;;;;0.97;0.60;;;11.00;99.90;;;;;;5070385;28;20472;-64
2021/05/17 12:50:53;;;;;;;5.63;0.80;;;11.10;99.90;;;;;;5071199;28;20850;-63
2021/05/17 12:53:23;;;;;;;2.10;0.83;;;11.20;99.90;;;;;;5071060;28;20867;-64
2021/05/17 12:55:53;;;;;;;0.93;0.70;;;11.30;99.90;;;;;;5069274;28;20918;-64
2021/05/17 12:58:30;;;;;;;1.00;0.70;;;11.30;99.90;;;;;;5074034;28;20450;-65
2021/05/17 13:00:57;;;;;;;1.00;0.80;;;11.40;99.90;;;;;;5079012;28;20956;-65
2021/05/17 13:03:33;;;;;;;0.90;0.60;;;10.90;99.90;;;;;;5081952;28;20438;-66
2021/05/17 13:06:03;;;;;;;2.43;0.67;;;10.80;99.90;;;;;;5071280;28;20811;-67
2021/05/17 13:08:48;;;;;;;1.00;0.70;;;10.70;99.90;;;;;;5070878;28;20442;-66
2021/05/17 13:11:21;;;;;;;0.90;0.63;;;10.60;99.90;;;;;;5070715;28;20495;-64
2021/05/17 13:13:50;;;;;;;1.50;0.70;;;10.50;99.90;;;;;;5070000;28;20446;-67
2021/05/17 13:16:20;;;;;;;0.80;0.50;;;10.30;99.90;;;;;;5070735;28;20971;-66
2021/05/17 13:30:45;;;;;;;1.10;0.60;;;11.10;99.90;;;;;;5070642;28;20514;-67
2021/05/17 13:33:23;;;;;;;1.17;0.90;;;11.00;99.90;;;;;;5070194;28;20445;-67
2021/05/17 13:35:55;;;;;;;0.90;0.63;;;11.10;99.90;;;;;;5070676;28;20438;-66
2021/05/17 13:38:22;;;;;;;1.53;0.90;;;11.20;99.90;;;;;;5070632;28;20548;-66